createdAt,value
2023-02-12T00:02:00.199Z,2.00
2023-02-12T00:04:47.918Z,1.90
2023-02-12T00:07:33.643Z,2.00
2023-02-12T00:10:19.419Z,1.90
2023-02-12T00:13:05.276Z,1.90
2023-02-12T00:15:51.192Z,1.90
2023-02-12T00:18:37.206Z,1.90
2023-02-12T00:21:23.324Z,1.90
2023-02-12T00:24:09.171Z,1.90
2023-02-12T00:26:54.687Z,1.90
2023-02-12T00:29:40.578Z,1.90
2023-02-12T00:32:26.443Z,1.90
2023-02-12T00:35:12.644Z,1.90
2023-02-12T00:37:58.799Z,1.90
2023-02-12T00:40:44.313Z,1.90
2023-02-12T00:43:29.866Z,1.60
2023-02-12T00:46:15.965Z,1.70
2023-02-12T00:49:02.231Z,1.60
2023-02-12T00:51:47.759Z,1.70
2023-02-12T00:54:33.520Z,1.70
2023-02-12T00:57:19.120Z,1.80
2023-02-12T01:00:05.494Z,1.80
2023-02-12T01:02:51.018Z,1.90
2023-02-12T01:05:37.113Z,1.90
2023-02-12T01:08:23.048Z,2.00
2023-02-12T01:11:12.192Z,2.00
2023-02-12T01:13:58.165Z,1.90
2023-02-12T01:16:44.134Z,2.00
2023-02-12T01:19:30.250Z,1.90
2023-02-12T01:22:16.467Z,1.90
2023-02-12T01:25:02.837Z,1.90
2023-02-12T01:27:48.381Z,1.90
2023-02-12T01:30:33.988Z,1.80
2023-02-12T01:33:21.119Z,1.80
2023-02-12T01:36:07.589Z,1.70
2023-02-12T01:38:53.614Z,1.60
2023-02-12T01:41:44.322Z,1.60
2023-02-12T01:44:31.901Z,1.50
2023-02-12T01:47:18.516Z,1.60
2023-02-12T01:50:04.763Z,1.50
2023-02-12T01:52:54.061Z,1.60
2023-02-12T01:55:40.731Z,1.60
2023-02-12T01:58:31.671Z,1.60
2023-02-12T02:01:23.789Z,1.50
2023-02-12T02:04:15.328Z,1.50
2023-02-12T02:07:04.552Z,1.50
2023-02-12T02:09:50.658Z,1.50
2023-02-12T02:12:56.303Z,1.50
2023-02-12T02:15:47.003Z,1.50
2023-02-12T02:18:55.873Z,1.50
2023-02-12T02:21:55.582Z,1.50
2023-02-12T02:24:47.299Z,1.50
2023-02-12T02:27:54.866Z,1.40
2023-02-12T02:30:57.758Z,1.50
2023-02-12T02:33:46.120Z,1.50
2023-02-12T02:36:34.835Z,1.50
2023-02-12T02:39:33.570Z,1.50
2023-02-12T02:42:22.286Z,1.40
2023-02-12T02:45:22.538Z,1.40
2023-02-12T02:48:17.640Z,1.30
2023-02-12T02:51:15.461Z,1.30
2023-02-12T02:54:03.999Z,1.30
2023-02-12T02:56:55.284Z,1.20
2023-02-12T02:59:46.493Z,1.10
2023-02-12T03:02:36.158Z,1.10
2023-02-12T03:05:31.108Z,1.10
2023-02-12T03:08:25.152Z,1.10
2023-02-12T03:11:27.643Z,1.10
2023-02-12T03:14:16.314Z,1.10
2023-02-12T03:17:12.994Z,1.10
2023-02-12T03:20:05.751Z,1.00
2023-02-12T03:23:03.898Z,1.00
2023-02-12T03:26:20.867Z,0.90
2023-02-12T03:29:06.648Z,1.00
2023-02-12T03:32:19.174Z,0.90
2023-02-12T03:35:29.004Z,0.90
2023-02-12T03:38:23.448Z,0.90
2023-02-12T03:41:14.390Z,0.90
2023-02-12T03:44:05.799Z,0.90
2023-02-12T03:47:05.098Z,1.00
2023-02-12T03:49:59.452Z,1.00
2023-02-12T03:52:46.059Z,1.10
2023-02-12T03:55:34.492Z,1.10
2023-02-12T03:58:26.900Z,1.10
2023-02-12T04:01:13.679Z,1.00
2023-02-12T04:04:02.812Z,1.00
2023-02-12T04:06:50.497Z,1.00
2023-02-12T04:09:36.116Z,1.10
2023-02-12T04:12:51.115Z,1.00
2023-02-12T04:15:39.831Z,1.00
2023-02-12T04:18:38.992Z,1.00
2023-02-12T04:22:11.591Z,1.00
2023-02-12T04:25:30.017Z,1.00
2023-02-12T04:28:46.438Z,1.00
2023-02-12T04:31:46.533Z,1.00
2023-02-12T04:35:02.639Z,1.00
2023-02-12T04:37:57.306Z,0.90
2023-02-12T04:40:44.157Z,0.90
2023-02-12T04:43:34.727Z,0.90
2023-02-12T04:46:21.449Z,0.90
2023-02-12T04:49:09.138Z,0.90
2023-02-12T04:51:55.085Z,0.90
2023-02-12T04:54:40.964Z,0.90
2023-02-12T04:57:26.515Z,0.90
2023-02-12T05:00:14.452Z,0.80
2023-02-12T05:03:00.192Z,0.90
2023-02-12T05:05:45.643Z,0.90
2023-02-12T05:08:31.287Z,0.90
2023-02-12T05:11:16.835Z,0.90
2023-02-12T05:14:02.491Z,0.90
2023-02-12T05:16:48.042Z,0.80
2023-02-12T05:19:33.689Z,0.80
2023-02-12T05:22:19.682Z,0.70
2023-02-12T05:25:06.153Z,0.70
2023-02-12T05:27:51.479Z,0.70
2023-02-12T05:30:37.194Z,0.70
2023-02-12T05:33:22.754Z,0.70
2023-02-12T05:36:11.766Z,0.80
2023-02-12T05:38:59.524Z,0.80
2023-02-12T05:41:44.993Z,0.70
2023-02-12T05:44:30.568Z,0.80
2023-02-12T05:47:16.297Z,0.80
2023-02-12T05:50:03.046Z,0.70
2023-02-12T05:52:48.613Z,0.80
2023-02-12T05:55:34.469Z,0.70
2023-02-12T05:58:19.856Z,0.80
2023-02-12T06:01:17.549Z,0.80
2023-02-12T06:04:06.233Z,0.80
2023-02-12T06:06:53.450Z,0.80
2023-02-12T06:09:38.919Z,0.80
2023-02-12T06:12:24.370Z,0.70
2023-02-12T06:15:10.687Z,0.80
2023-02-12T06:17:56.310Z,0.80
2023-02-12T06:20:42.017Z,0.80
2023-02-12T06:23:27.612Z,0.80
2023-02-12T06:26:13.053Z,0.80
2023-02-12T06:28:58.763Z,0.80
2023-02-12T06:31:44.500Z,0.80
2023-02-12T06:34:30.250Z,0.70
2023-02-12T06:37:15.824Z,0.70
2023-02-12T06:40:01.510Z,0.70
2023-02-12T06:42:47.042Z,0.70
2023-02-12T06:45:34.000Z,0.70
2023-02-12T06:48:19.489Z,0.70
2023-02-12T06:51:08.393Z,0.70
2023-02-12T06:53:54.953Z,0.70
2023-02-12T06:56:40.498Z,0.60
2023-02-12T06:59:26.410Z,0.70
2023-02-12T07:02:12.323Z,0.70
2023-02-12T07:04:57.912Z,0.70
2023-02-12T07:07:43.637Z,0.70
2023-02-12T07:10:29.089Z,0.70
2023-02-12T07:13:14.696Z,0.70
2023-02-12T07:16:07.401Z,0.70
2023-02-12T07:18:53.181Z,0.70
2023-02-12T07:21:39.040Z,0.70
2023-02-12T07:24:24.565Z,0.80
2023-02-12T07:27:09.965Z,0.80
2023-02-12T07:29:55.509Z,1.00
2023-02-12T07:32:41.065Z,1.10
2023-02-12T07:35:26.539Z,1.30
2023-02-12T07:38:12.318Z,1.30
2023-02-12T07:41:12.160Z,1.40
2023-02-12T07:44:01.000Z,1.50
2023-02-12T07:46:49.005Z,1.60
2023-02-12T07:49:34.394Z,1.70
2023-02-12T07:52:19.967Z,1.80
2023-02-12T07:55:05.848Z,1.90
2023-02-12T07:57:51.721Z,2.00
2023-02-12T08:00:37.572Z,2.00
2023-02-12T08:03:23.004Z,2.10
2023-02-12T08:06:13.971Z,2.20
2023-02-12T08:09:01.503Z,2.40
2023-02-12T08:11:47.317Z,2.60
2023-02-12T08:14:32.726Z,2.60
2023-02-12T08:17:18.432Z,2.70
2023-02-12T08:20:04.074Z,2.80
2023-02-12T08:22:49.769Z,2.90
2023-02-12T08:25:35.331Z,3.00
2023-02-12T08:28:20.912Z,3.10
2023-02-12T08:31:10.425Z,3.30
2023-02-12T08:33:56.760Z,3.40
2023-02-12T08:36:42.624Z,3.50
2023-02-12T08:39:30.036Z,3.60
2023-02-12T08:42:15.620Z,3.70
2023-02-12T08:45:01.133Z,3.80
2023-02-12T08:47:48.290Z,3.90
2023-02-12T08:50:34.595Z,3.90
2023-02-12T08:53:20.306Z,4.00
2023-02-12T08:56:07.146Z,4.10
2023-02-12T08:58:53.120Z,4.10
2023-02-12T09:01:40.961Z,4.20
2023-02-12T09:04:28.347Z,4.30
2023-02-12T09:07:14.141Z,4.40
2023-02-12T09:09:59.608Z,4.70
2023-02-12T09:12:45.190Z,4.70
2023-02-12T09:15:30.731Z,4.80
2023-02-12T09:18:16.357Z,4.80
2023-02-12T09:21:10.875Z,4.70
2023-02-12T09:23:56.676Z,4.90
2023-02-12T09:26:42.554Z,5.10
2023-02-12T09:29:28.330Z,5.30
2023-02-12T09:32:13.925Z,5.50
2023-02-12T09:34:59.248Z,5.60
2023-02-12T09:37:45.619Z,5.90
2023-02-12T09:40:36.221Z,6.00
2023-02-12T09:43:39.466Z,6.20
2023-02-12T09:46:33.008Z,6.40
2023-02-12T09:49:39.680Z,6.20
2023-02-12T09:52:27.773Z,6.40
2023-02-12T09:55:18.275Z,6.50
2023-02-12T09:58:12.717Z,6.40
2023-02-12T10:00:58.748Z,6.60
2023-02-12T10:03:46.431Z,6.90
2023-02-12T10:06:40.544Z,7.10
2023-02-12T10:09:47.300Z,7.20
2023-02-12T10:12:39.425Z,7.30
2023-02-12T10:15:35.575Z,7.50
2023-02-12T10:18:32.883Z,7.60
2023-02-12T10:21:43.120Z,7.80
2023-02-12T10:24:40.932Z,7.90
2023-02-12T10:27:38.669Z,8.00
2023-02-12T10:30:30.596Z,8.10
2023-02-12T10:33:25.412Z,8.20
2023-02-12T10:36:37.218Z,8.40
2023-02-12T10:39:52.160Z,8.40
2023-02-12T10:42:41.022Z,8.30
2023-02-12T10:45:39.710Z,8.60
2023-02-12T10:48:33.162Z,9.00
2023-02-12T10:51:48.824Z,9.00
2023-02-12T10:54:40.991Z,8.30
2023-02-12T10:57:31.602Z,8.70
2023-02-12T11:00:32.578Z,9.10
2023-02-12T11:03:21.723Z,9.30
2023-02-12T11:06:22.511Z,9.50
2023-02-12T11:09:28.822Z,9.50
2023-02-12T11:12:32.839Z,9.70
2023-02-12T11:15:23.388Z,9.90
2023-02-12T11:18:26.157Z,9.90
2023-02-12T11:21:13.040Z,10.00
2023-02-12T11:24:27.086Z,10.20
2023-02-12T11:27:15.930Z,10.30
2023-02-12T11:30:12.463Z,10.30
2023-02-12T11:33:22.626Z,10.60
2023-02-12T11:36:24.663Z,10.70
2023-02-12T11:39:41.490Z,10.80
2023-02-12T11:42:34.320Z,11.10
2023-02-12T11:45:22.531Z,11.30
2023-02-12T11:48:24.368Z,11.50
2023-02-12T11:51:22.996Z,11.60
2023-02-12T11:54:19.737Z,11.70
2023-02-12T11:57:05.360Z,11.90
2023-02-12T11:59:51.817Z,12.30
2023-02-12T12:02:43.889Z,12.70
2023-02-12T12:05:35.657Z,13.20
2023-02-12T12:08:29.445Z,14.00
2023-02-12T12:11:25.192Z,15.00
2023-02-12T12:14:20.129Z,16.20
2023-02-12T12:17:32.198Z,17.70
2023-02-12T12:20:22.551Z,20.60
2023-02-12T12:23:34.777Z,24.00
2023-02-12T12:26:31.182Z,26.00
2023-02-12T12:29:31.712Z,27.30
2023-02-12T12:32:19.580Z,28.00
2023-02-12T12:35:19.369Z,28.70
2023-02-12T12:38:29.552Z,29.10
2023-02-12T12:41:48.147Z,29.20
2023-02-12T12:45:11.093Z,28.90
2023-02-12T12:48:24.198Z,29.10
2023-02-12T12:51:35.902Z,28.50
2023-02-12T12:54:24.177Z,28.10
2023-02-12T12:57:16.876Z,28.10
2023-02-12T13:00:05.333Z,27.30
2023-02-12T13:03:35.396Z,27.20
2023-02-12T13:06:21.053Z,27.10
2023-02-12T13:09:24.831Z,27.00
2023-02-12T13:12:29.357Z,27.00
2023-02-12T13:15:19.405Z,26.50
2023-02-12T13:18:04.516Z,26.10
2023-02-12T13:21:27.770Z,25.80
2023-02-12T13:24:21.397Z,25.40
2023-02-12T13:27:16.711Z,25.40
2023-02-12T13:30:32.502Z,25.30
2023-02-12T13:33:44.587Z,25.80
2023-02-12T13:36:31.547Z,26.30
2023-02-12T13:39:27.459Z,26.70
2023-02-12T13:42:31.779Z,26.80
2023-02-12T13:45:22.145Z,27.30
2023-02-12T13:48:40.166Z,27.50
2023-02-12T13:51:49.077Z,26.80
2023-02-12T13:54:55.853Z,26.70
2023-02-12T13:57:41.208Z,26.50
2023-02-12T14:00:51.668Z,25.60
2023-02-12T14:03:39.076Z,25.10
2023-02-12T14:06:28.549Z,25.10
2023-02-12T14:09:26.634Z,25.50
2023-02-12T14:12:24.707Z,25.50
2023-02-12T14:15:32.739Z,25.40
2023-02-12T14:18:37.438Z,25.40
2023-02-12T14:21:29.135Z,25.00
2023-02-12T14:24:36.473Z,24.20
2023-02-12T14:27:30.928Z,23.60
2023-02-12T14:30:28.779Z,23.30
2023-02-12T14:33:21.871Z,22.90
2023-02-12T14:36:15.543Z,22.40
2023-02-12T14:39:05.187Z,22.00
2023-02-12T14:41:55.472Z,21.90
2023-02-12T14:44:46.641Z,21.80
2023-02-12T14:47:32.078Z,21.70
2023-02-12T14:50:23.217Z,21.70
2023-02-12T14:53:25.739Z,21.70
2023-02-12T14:56:13.373Z,22.10
2023-02-12T14:59:02.901Z,22.40
2023-02-12T15:01:50.262Z,22.50
2023-02-12T15:04:39.749Z,22.40
2023-02-12T15:08:09.932Z,21.50
2023-02-12T15:10:59.209Z,19.90
2023-02-12T15:14:07.507Z,18.40
2023-02-12T15:17:10.801Z,17.10
2023-02-12T15:20:06.076Z,16.40
2023-02-12T15:22:51.912Z,15.80
2023-02-12T15:25:39.933Z,15.30
2023-02-12T15:28:33.486Z,14.90
2023-02-12T15:31:24.608Z,14.70
2023-02-12T15:34:22.124Z,14.50
2023-02-12T15:37:09.535Z,14.40
2023-02-12T15:39:58.048Z,14.30
2023-02-12T15:42:54.236Z,14.10
2023-02-12T15:45:49.165Z,13.80
2023-02-12T15:48:36.143Z,13.60
2023-02-12T15:51:35.350Z,13.50
2023-02-12T15:54:21.298Z,13.40
2023-02-12T15:57:12.274Z,13.40
2023-02-12T16:00:25.760Z,13.30
2023-02-12T16:03:35.629Z,13.20
2023-02-12T16:06:23.313Z,13.00
2023-02-12T16:09:18.812Z,12.80
2023-02-12T16:12:11.388Z,12.60
2023-02-12T16:15:00.934Z,12.40
2023-02-12T16:17:47.430Z,12.30
2023-02-12T16:20:32.958Z,12.20
2023-02-12T16:23:21.010Z,12.00
2023-02-12T16:26:06.777Z,11.80
2023-02-12T16:28:57.245Z,11.70
2023-02-12T16:31:55.883Z,11.60
2023-02-12T16:34:41.417Z,11.40
2023-02-12T16:37:38.761Z,11.30
2023-02-12T16:40:34.390Z,11.00
2023-02-12T16:43:25.735Z,11.00
2023-02-12T16:46:12.786Z,10.90
2023-02-12T16:49:00.739Z,10.70
2023-02-12T16:51:47.690Z,10.50
2023-02-12T16:54:35.075Z,10.30
2023-02-12T16:57:20.554Z,10.10
2023-02-12T17:00:10.389Z,9.90
2023-02-12T17:02:56.725Z,9.70
2023-02-12T17:05:49.419Z,9.50
2023-02-12T17:08:35.018Z,9.30
2023-02-12T17:11:23.155Z,9.20
2023-02-12T17:14:14.413Z,9.00
2023-02-12T17:17:00.255Z,8.60
2023-02-12T17:19:45.731Z,8.70
2023-02-12T17:22:31.507Z,8.60
2023-02-12T17:25:17.338Z,8.50
2023-02-12T17:28:03.253Z,8.40
2023-02-12T17:30:49.115Z,8.30
2023-02-12T17:33:34.842Z,8.20
2023-02-12T17:36:20.495Z,8.10
2023-02-12T17:39:08.115Z,8.00
2023-02-12T17:41:53.608Z,8.00
2023-02-12T17:44:39.981Z,7.90
2023-02-12T17:47:25.880Z,7.80
2023-02-12T17:50:15.313Z,7.70
2023-02-12T17:53:01.119Z,7.60
2023-02-12T17:55:46.682Z,7.60
2023-02-12T17:58:32.549Z,7.50
2023-02-12T18:01:21.330Z,7.40
2023-02-12T18:04:07.213Z,7.40
2023-02-12T18:06:52.780Z,7.40
2023-02-12T18:09:39.580Z,7.30
2023-02-12T18:12:25.032Z,7.30
2023-02-12T18:15:11.201Z,7.30
2023-02-12T18:17:56.441Z,7.20
2023-02-12T18:20:42.556Z,7.20
2023-02-12T18:23:28.063Z,7.00
2023-02-12T18:26:16.970Z,7.00
2023-02-12T18:29:02.474Z,6.90
2023-02-12T18:31:48.359Z,6.80
2023-02-12T18:34:34.570Z,6.80
2023-02-12T18:37:20.065Z,6.70
2023-02-12T18:40:06.142Z,6.70
2023-02-12T18:42:53.080Z,6.60
2023-02-12T18:45:39.738Z,6.60
2023-02-12T18:48:25.675Z,6.60
2023-02-12T18:51:21.002Z,6.60
2023-02-12T18:54:11.478Z,6.50
2023-02-12T18:56:57.475Z,6.50
2023-02-12T18:59:43.275Z,6.40
2023-02-12T19:02:29.142Z,6.40
2023-02-12T19:05:14.778Z,6.40
2023-02-12T19:08:00.805Z,6.40
2023-02-12T19:10:49.472Z,6.30
2023-02-12T19:13:35.353Z,6.30
2023-02-12T19:16:23.590Z,6.20
2023-02-12T19:19:10.033Z,6.00
2023-02-12T19:21:55.685Z,6.00
2023-02-12T19:24:46.620Z,6.00
2023-02-12T19:27:32.817Z,6.00
2023-02-12T19:30:19.923Z,6.00
2023-02-12T19:33:06.587Z,6.00
2023-02-12T19:35:52.512Z,5.90
2023-02-12T19:38:38.416Z,5.90
2023-02-12T19:41:30.089Z,6.00
2023-02-12T19:44:22.147Z,6.00
2023-02-12T19:47:08.909Z,6.00
2023-02-12T19:49:54.964Z,5.90
2023-02-12T19:52:41.595Z,5.90
2023-02-12T19:55:26.889Z,5.90
2023-02-12T19:58:12.581Z,5.80
2023-02-12T20:00:58.117Z,5.70
2023-02-12T20:03:45.362Z,5.60
2023-02-12T20:06:34.875Z,5.50
2023-02-12T20:09:22.353Z,5.40
2023-02-12T20:12:07.928Z,5.40
2023-02-12T20:14:55.605Z,5.30
2023-02-12T20:17:41.598Z,5.20
2023-02-12T20:20:27.163Z,5.20
2023-02-12T20:23:12.626Z,5.20
2023-02-12T20:25:58.104Z,5.10
2023-02-12T20:28:44.072Z,5.10
2023-02-12T20:31:32.592Z,5.00
2023-02-12T20:34:19.917Z,4.90
2023-02-12T20:37:06.650Z,4.90
2023-02-12T20:39:52.410Z,4.90
2023-02-12T20:42:38.051Z,4.80
2023-02-12T20:45:24.437Z,4.90
2023-02-12T20:48:10.246Z,4.90
2023-02-12T20:50:55.996Z,4.80
2023-02-12T20:53:43.097Z,4.80
2023-02-12T20:56:31.116Z,4.80
2023-02-12T20:59:16.614Z,4.70
2023-02-12T21:02:02.244Z,4.70
2023-02-12T21:04:50.677Z,4.60
2023-02-12T21:07:36.543Z,4.60
2023-02-12T21:10:23.252Z,4.60
2023-02-12T21:13:08.969Z,3.90
2023-02-12T21:16:25.536Z,4.50
2023-02-12T21:19:13.968Z,4.50
2023-02-12T21:21:59.502Z,4.60
2023-02-12T21:24:45.348Z,4.50
2023-02-12T21:27:31.145Z,4.50
2023-02-12T21:30:16.820Z,4.50
2023-02-12T21:33:02.778Z,4.40
2023-02-12T21:35:48.233Z,4.40
2023-02-12T21:38:37.901Z,4.40
2023-02-12T21:41:24.808Z,4.30
2023-02-12T21:44:20.487Z,4.30
2023-02-12T21:47:08.694Z,4.30
2023-02-12T21:49:54.630Z,4.30
2023-02-12T21:52:40.052Z,4.20
2023-02-12T21:55:25.687Z,4.10
2023-02-12T21:58:11.237Z,4.10
2023-02-12T22:00:57.171Z,4.10
2023-02-12T22:03:44.262Z,4.10
2023-02-12T22:06:30.132Z,4.10
2023-02-12T22:09:19.495Z,4.10
2023-02-12T22:12:05.684Z,4.10
2023-02-12T22:14:50.959Z,4.10
2023-02-12T22:17:36.559Z,4.00
2023-02-12T22:20:22.196Z,4.00
2023-02-12T22:23:07.839Z,4.00
2023-02-12T22:25:53.527Z,3.90
2023-02-12T22:28:44.098Z,3.80
2023-02-12T22:31:32.183Z,3.80
2023-02-12T22:34:19.117Z,3.70
2023-02-12T22:37:04.699Z,3.60
2023-02-12T22:39:50.635Z,3.60
2023-02-12T22:42:36.802Z,3.60
2023-02-12T22:45:22.542Z,3.60
2023-02-12T22:48:08.242Z,3.70
2023-02-12T22:50:54.082Z,3.80
2023-02-12T22:53:39.562Z,3.80
2023-02-12T22:56:25.660Z,3.80
2023-02-12T22:59:12.364Z,3.80
2023-02-12T23:01:59.281Z,3.70
2023-02-12T23:04:44.735Z,3.70
2023-02-12T23:07:30.300Z,3.70
2023-02-12T23:10:15.908Z,3.70
2023-02-12T23:13:03.044Z,3.70
2023-02-12T23:15:48.679Z,3.60
2023-02-12T23:18:34.727Z,3.60
2023-02-12T23:21:20.178Z,3.60
2023-02-12T23:24:06.145Z,3.50
2023-02-12T23:26:53.254Z,4.00
2023-02-12T23:29:38.891Z,3.40
2023-02-12T23:32:24.080Z,3.30
2023-02-12T23:35:09.498Z,3.30
2023-02-12T23:37:55.060Z,3.20
2023-02-12T23:40:41.277Z,3.20
2023-02-12T23:43:27.069Z,3.10
2023-02-12T23:46:12.929Z,3.10
2023-02-12T23:48:58.617Z,3.10
2023-02-12T23:51:46.249Z,3.10
2023-02-12T23:54:31.835Z,3.10
2023-02-12T23:57:17.663Z,3.10
